METAR Data
IDs: Format: Raw Decoded Include TAF

Data at: 0551 UTC 24 Sep 2018

KEVV 240509Z AUTO 06004KT 5SM RA BR BKN005 BKN009 OVC016 18/18 A3004 RMK AO2 P0001 T01830183
KEVV 240454Z AUTO 06005KT 5SM -RA BR OVC004 18/18 A3004 RMK AO2 CIG 003V009 SLP170 P0018 T01830183
KEVV 240410Z AUTO 06004KT 3SM R22/6000VP6000FT +RA BR BKN004 OVC009 18/18 A3005 RMK AO2 P0012 T01780178
KEVV 240404Z AUTO 06003KT 2 1/2SM R22/5000VP6000FT +RA BR BKN006 OVC011 18/18 A3005 RMK AO2 P0009 T01780178
KEVV 240354Z AUTO 07004KT 3SM R22/6000VP6000FT +RA BR BKN006 OVC015 18/18 A3005 RMK AO2 SLP174 P0011 T01780178
KEVV 240331Z 07005KT 5SM -RA BR BKN008 BKN023 OVC028 18/18 A3005 RMK AO2 P0003 T01830178
KEVV 240254Z 09007KT 9SM RA FEW011 BKN024 OVC028 19/18 A3005 RMK AO2 RAB54 SLP173 P0000 60001 T01890178 53004
KEVV 240245Z 08005KT 10SM FEW012 OVC024 19/18 A3005 RMK AO2 T01890178
KEVV 240154Z 08006KT 5SM BR OVC013 18/18 A3005 RMK AO2 RAB0055E44 SLP172 P0001 T01830178
KEVV 240054Z 08005KT 10SM OVC014 19/18 A3004 RMK AO2 SLP170 T01890178
KEVV 240039Z 09006KT 10SM OVC014 19/17 A3004 RMK AO2 T01890172
KEVV 240011Z 07005KT 10SM OVC016 19/17 A3004 RMK AO2 T01890172
KEVV 232354Z 08007KT 10SM OVC014 19/17 A3004 RMK AO2 SLP169 T01940172 10211 20194 50000
KEVV 232326Z 07006KT 10SM OVC014 19/17 A3004 RMK AO2 T01940172
KEVV 232254Z 07008KT 10SM OVC015 19/17 A3004 RMK AO2 SLP170 T01940172
KEVV 232154Z 09007KT 10SM OVC016 20/17 A3004 RMK AO2 SLP169 T02000172
KEVV 232054Z 08006KT 10SM OVC016 21/18 A3004 RMK AO2 SLP169 T02060178 58013
KEVV 231954Z AUTO 06008KT 10SM OVC016 21/18 A3004 RMK AO2 SLP172 T02060178
KEVV 231854Z 08007KT 10SM OVC016 21/18 A3007 RMK AO2 SLP179 T02110178
KEVV 231754Z 07008KT 10SM OVC015 21/18 A3007 RMK AO2 SLP181 T02110178 10217 20161 56007
KEVV 231654Z 03006KT 10SM OVC008 20/17 A3009 RMK AO2 SLP186 T02000172
KEVV 231554Z 03006KT 6SM BR OVC009 19/17 A3009 RMK AO2 SLP189 T01890172
KEVV 231454Z 06007KT 6SM BR OVC007 18/17 A3010 RMK AO2 SLP190 T01780167 51010
KEVV 231354Z 03005KT 6SM BR OVC007 17/17 A3010 RMK AO2 SLP189 T01720167
KEVV 231254Z 03006KT 7SM BKN008 OVC019 17/16 A3009 RMK AO2 SLP187 T01670161
KEVV 231228Z 02005KT 7SM BKN008 BKN019 OVC085 16/16 A3009 RMK AO2 T01610161
KEVV 231154Z 03007KT 9SM SCT008 BKN020 OVC085 16/16 A3007 RMK AO2 SLP179 60003 70029 T01610156 10161 20156 52004
KEVV 231054Z 02006KT 9SM OVC008 16/16 A3006 RMK AO2 RAE14 SLP179 P0000 T01610156
KEVV 231015Z AUTO 03007KT 9SM OVC009 16/16 A3006 RMK AO2 RAE14 P0000 T01610156
KEVV 231001Z AUTO 04005KT 7SM -RA BKN010 OVC019 16/16 A3006 RMK AO2 P0000 T01560156
KEVV 230954Z AUTO 04007KT 8SM -RA BKN009 OVC021 16/16 A3005 RMK AO2 RAB19 SLP175 P0002 T01610156
KEVV 230928Z AUTO 02005KT 6SM -RA BR BKN009 OVC019 16/16 A3007 RMK AO2 RAB19 CIG 006V013 P0001 T01610156
KEVV 230854Z AUTO 03007KT 8SM SCT008 OVC020 16/16 A3005 RMK AO2 RAE51 SLP175 P0001 60001 T01560156 58012
KEVV 230831Z AUTO 03008KT 6SM -RA BR SCT008 SCT014 OVC020 16/16 A3006 RMK AO2 P0001 T01560156
KEVV 230754Z AUTO 04006KT 10SM -RA OVC017 16/16 A3007 RMK AO2 RAB47 SLP181 P0000 T01610156
KEVV 230726Z AUTO 03005KT 10SM OVC016 16/16 A3008 RMK AO2 T01610156
KEVV 230717Z AUTO 05007KT 10SM BKN013 OVC020 16/16 A3007 RMK AO2 T01610156
KEVV 230705Z AUTO 02006KT 10SM FEW009 BKN016 OVC020 16/16 A3008 RMK AO2 T01610156
KEVV 230654Z AUTO 04006KT 10SM SCT008 BKN013 OVC022 16/16 A3007 RMK AO2 RAB06E49 SLP182 P0000 T01560156
KEVV 230645Z AUTO 05006KT 10SM -RA BKN008 OVC022 16/16 A3007 RMK AO2 RAB06 CIG 007V013 P0000 T01560156
KEVV 230621Z AUTO 05006KT 8SM -RA FEW009 OVC024 16/16 A3007 RMK AO2 RAB06 P0000 T01560156
KEVV 230554Z AUTO 06005KT 10SM BKN022 16/16 A3009 RMK AO2 SLP187 60000 T01610156 10161 20156 402110156 56020
KEVV 230536Z AUTO 02006KT 10SM BKN022 OVC075 16/16 A3010 RMK AO2 T01610156
KEVV 230454Z AUTO 03008KT 10SM FEW008 BKN040 16/16 A3010 RMK AO2 SLP189 T01560156
KEVV 230418Z AUTO 03008KT 10SM SCT008 BKN036 OVC043 16/16 A3011 RMK AO2 T01610156
KEVV 230354Z AUTO 03007KT 10SM BKN009 OVC032 16/16 A3012 RMK AO2 CIG 007V013 SLP199 T01610156
KEVV 230310Z 03007KT 10SM BKN008 OVC033 16/16 A3015 RMK AO2 T01610156
KEVV 230254Z 03007KT 10SM SCT008 OVC034 16/16 A3015 RMK AO2 SLP207 60000 T01610156 51011
KEVV 230154Z 03007KT 10SM FEW007 OVC034 16/16 A3014 RMK AO2 SLP206 T01610156
KEVV 230122Z 04007KT 10SM SCT008 OVC036 16/16 A3014 RMK AO2 T01610156
KEVV 230054Z 03009KT 10SM BKN008 OVC060 16/16 A3013 RMK AO2 RAE05 SLP202 P0000 T01560156
KEVV 230030Z 03008KT 10SM BKN008 BKN040 BKN060 16/16 A3013 RMK AO2 RAE05 P0000 T01560156
KEVV 230001Z 06009KT 10SM -RA FEW009 SCT039 BKN055 16/15 A3012 RMK AO2 P0000 T01560150
KEVV 222354Z 07010KT 10SM -RA BKN009 BKN012 16/15 A3012 RMK AO2 PRESFR SLP196 P0008 60020 T01560150 10167 20156 58009
KEVV 222254Z 02008KT 10SM -RA BKN007 OVC012 16/16 A3014 RMK AO2 SLP203 P0001 T01560156
KEVV 222154Z 02008KT 7SM -RA BKN007 OVC012 16/16 A3014 RMK AO2 SLP203 P0003 T01610156
KEVV 222131Z 04009KT 9SM -RA BKN006 BKN012 OVC100 16/16 A3012 RMK AO2 P0002 T01610156
KEVV 222054Z 02009KT 7SM -RA BKN010 OVC090 16/16 A3014 RMK AO2 SLP205 P0005 60008 T01610156 58016
KEVV 222033Z 02007KT 9SM RA BKN009 BKN014 OVC095 16/16 A3014 RMK AO2 P0003 T01610156
KEVV 221954Z 03006KT 8SM RA OVC012 17/16 A3017 RMK AO2 SLP214 P0002 T01670156
KEVV 221854Z 03006KT 8SM -RA BKN013 OVC090 17/15 A3018 RMK AO2 SLP217 P0001 T01670150
KEVV 221827Z 04007KT 8SM -RA BKN013 OVC095 17/16 A3018 RMK AO2 P0001 T01670156
KEVV 221754Z 06005KT 10SM -RA OVC100 17/15 A3019 RMK AO2 SLP220 P0000 60006 T01670150 10178 20161 58010